createdAt,value
2023-04-05T00:02:14.016Z,50.19
2023-04-05T00:04:52.096Z,50.80
2023-04-05T00:07:19.251Z,50.81
2023-04-05T00:09:46.291Z,50.96
2023-04-05T00:12:13.207Z,50.51
2023-04-05T00:14:39.691Z,50.75
2023-04-05T00:17:06.385Z,51.19
2023-04-05T00:19:33.926Z,53.90
2023-04-05T00:22:00.783Z,53.32
2023-04-05T00:24:29.400Z,54.95
2023-04-05T00:26:56.720Z,54.09
2023-04-05T00:29:23.367Z,52.80
2023-04-05T00:31:49.899Z,52.36
2023-04-05T00:34:16.364Z,54.00
2023-04-05T00:36:42.781Z,54.24
2023-04-05T00:39:09.201Z,57.23
2023-04-05T00:41:36.679Z,58.59
2023-04-05T00:44:03.864Z,58.56
2023-04-05T00:46:33.600Z,55.17
2023-04-05T00:49:00.147Z,54.94
2023-04-05T00:51:26.714Z,56.03
2023-04-05T00:53:53.898Z,55.35
2023-04-05T00:56:21.711Z,54.17
2023-04-05T00:58:48.662Z,53.77
2023-04-05T01:01:24.942Z,56.74
2023-04-05T01:04:02.690Z,57.66
2023-04-05T01:06:46.902Z,56.18
2023-04-05T01:09:13.265Z,54.56
2023-04-05T01:11:42.572Z,54.11
2023-04-05T01:14:09.007Z,53.20
2023-04-05T01:16:35.515Z,54.10
2023-04-05T01:19:03.938Z,53.77
2023-04-05T01:21:34.055Z,53.24
2023-04-05T01:24:20.891Z,52.97
2023-04-05T01:27:04.445Z,54.00
2023-04-05T01:29:52.582Z,53.88
2023-04-05T01:32:39.588Z,54.13
2023-04-05T01:35:12.168Z,54.73
2023-04-05T01:37:40.074Z,54.91
2023-04-05T01:40:08.546Z,53.70
2023-04-05T01:42:35.845Z,54.14
2023-04-05T01:45:02.346Z,54.43
2023-04-05T01:47:28.866Z,53.62
2023-04-05T01:49:55.390Z,53.68
2023-04-05T01:52:21.861Z,54.41
2023-04-05T01:54:48.290Z,53.78
2023-04-05T01:57:14.687Z,54.16
2023-04-05T01:59:41.183Z,53.97
2023-04-05T02:02:07.743Z,54.77
2023-04-05T02:04:34.198Z,54.62
2023-04-05T02:07:00.987Z,54.69
2023-04-05T02:09:27.528Z,56.50
2023-04-05T02:11:53.912Z,54.43
2023-04-05T02:14:20.376Z,53.96
2023-04-05T02:16:46.951Z,54.09
2023-04-05T02:19:15.888Z,54.34
2023-04-05T02:21:42.310Z,54.46
2023-04-05T02:24:08.794Z,54.35
2023-04-05T02:26:35.206Z,54.62
2023-04-05T02:29:01.629Z,54.82
2023-04-05T02:31:28.101Z,54.54
2023-04-05T02:33:55.193Z,54.82
2023-04-05T02:36:22.138Z,55.71
2023-04-05T02:38:48.680Z,55.41
2023-04-05T02:41:15.321Z,54.41
2023-04-05T02:43:41.868Z,53.61
2023-04-05T02:46:08.354Z,54.31
2023-04-05T02:48:34.776Z,54.86
2023-04-05T02:51:01.230Z,54.19
2023-04-05T02:53:27.661Z,53.87
2023-04-05T02:55:57.766Z,54.19
2023-04-05T02:58:24.609Z,54.08
2023-04-05T03:00:54.215Z,55.53
2023-04-05T03:03:22.261Z,54.44
2023-04-05T03:05:59.105Z,54.35
2023-04-05T03:08:25.589Z,53.96
2023-04-05T03:10:52.299Z,53.77
2023-04-05T03:13:18.692Z,53.95
2023-04-05T03:15:45.229Z,54.63
2023-04-05T03:18:11.717Z,53.78
2023-04-05T03:20:41.398Z,53.88
2023-04-05T03:23:08.901Z,54.14
2023-04-05T03:25:37.175Z,54.47
2023-04-05T03:28:05.686Z,54.45
2023-04-05T03:30:41.188Z,54.16
2023-04-05T03:33:08.452Z,53.98
2023-04-05T03:35:34.881Z,53.71
2023-04-05T03:38:01.303Z,53.83
2023-04-05T03:40:27.812Z,54.24
2023-04-05T03:42:54.215Z,55.61
2023-04-05T03:45:23.982Z,55.24
2023-04-05T03:47:51.323Z,55.54
2023-04-05T03:50:17.941Z,55.23
2023-04-05T03:52:44.802Z,54.14
2023-04-05T03:55:11.255Z,54.58
2023-04-05T03:57:38.930Z,55.49
2023-04-05T04:00:14.618Z,58.52
2023-04-05T04:02:46.213Z,57.71
2023-04-05T04:05:13.928Z,58.46
2023-04-05T04:07:44.411Z,58.79
2023-04-05T04:10:16.826Z,56.47
2023-04-05T04:12:43.396Z,55.97
2023-04-05T04:15:10.186Z,57.17
2023-04-05T04:17:37.300Z,57.35
2023-04-05T04:20:11.295Z,58.96
2023-04-05T04:22:40.194Z,58.33
2023-04-05T04:25:10.581Z,57.29
2023-04-05T04:27:39.610Z,58.64
2023-04-05T04:30:12.008Z,57.63
2023-04-05T04:32:53.408Z,56.64
2023-04-05T04:35:27.854Z,56.26
2023-04-05T04:38:02.744Z,56.74
2023-04-05T04:40:32.332Z,55.50
2023-04-05T04:43:00.040Z,54.32
2023-04-05T04:45:26.575Z,53.45
2023-04-05T04:47:53.738Z,54.25
2023-04-05T04:50:20.852Z,53.80
2023-04-05T04:52:47.776Z,53.72
2023-04-05T04:55:14.463Z,53.63
2023-04-05T04:57:42.150Z,54.73
2023-04-05T05:00:13.110Z,55.21
2023-04-05T05:02:40.084Z,54.04
2023-04-05T05:05:07.640Z,53.04
2023-04-05T05:07:34.490Z,53.21
2023-04-05T05:10:01.609Z,52.32
2023-04-05T05:12:28.147Z,52.63
2023-04-05T05:14:54.549Z,52.70
2023-04-05T05:17:20.954Z,52.46
2023-04-05T05:19:47.383Z,52.48
2023-04-05T05:22:13.800Z,52.91
2023-04-05T05:24:40.282Z,52.47
2023-04-05T05:27:06.828Z,52.21
2023-04-05T05:29:33.244Z,52.37
2023-04-05T05:32:08.478Z,53.28
2023-04-05T05:34:35.577Z,53.64
2023-04-05T05:37:02.041Z,54.14
2023-04-05T05:39:28.467Z,53.89
2023-04-05T05:41:54.939Z,54.05
2023-04-05T05:44:21.405Z,53.39
2023-04-05T05:46:47.877Z,53.68
2023-04-05T05:49:14.377Z,54.44
2023-04-05T05:51:40.798Z,56.21
2023-04-05T05:54:07.204Z,53.53
2023-04-05T05:56:33.628Z,56.00
2023-04-05T05:59:01.627Z,55.57
2023-04-05T06:01:29.264Z,54.03
2023-04-05T06:03:55.877Z,53.50
2023-04-05T06:06:23.336Z,52.89
2023-04-05T06:08:51.398Z,52.79
2023-04-05T06:11:19.186Z,53.26
2023-04-05T06:13:46.025Z,52.96
2023-04-05T06:16:12.535Z,52.96
2023-04-05T06:18:39.042Z,52.15
2023-04-05T06:21:05.633Z,52.50
2023-04-05T06:23:32.175Z,52.47
2023-04-05T06:25:58.676Z,52.93
2023-04-05T06:28:25.312Z,53.11
2023-04-05T06:30:51.790Z,52.59
2023-04-05T06:33:18.236Z,53.43
2023-04-05T06:35:44.686Z,53.71
2023-04-05T06:38:11.194Z,52.57
2023-04-05T06:40:37.625Z,51.66
2023-04-05T06:43:04.116Z,51.78
2023-04-05T06:45:31.423Z,51.28
2023-04-05T06:47:58.017Z,50.88
2023-04-05T06:50:24.729Z,50.32
2023-04-05T06:52:51.139Z,49.82
2023-04-05T06:55:17.515Z,49.69
2023-04-05T06:57:43.945Z,49.18
2023-04-05T07:00:11.947Z,49.73
2023-04-05T07:02:39.096Z,49.49
2023-04-05T07:05:06.040Z,50.49
2023-04-05T07:07:33.333Z,49.45
2023-04-05T07:09:59.909Z,48.28
2023-04-05T07:12:26.354Z,49.25
2023-04-05T07:14:52.784Z,48.41
2023-04-05T07:17:19.255Z,48.38
2023-04-05T07:19:46.239Z,48.04
2023-04-05T07:22:12.694Z,48.34
2023-04-05T07:24:39.317Z,47.60
2023-04-05T07:27:05.783Z,46.56
2023-04-05T07:29:32.354Z,45.53
2023-04-05T07:31:58.953Z,47.44
2023-04-05T07:34:25.517Z,45.98
2023-04-05T07:36:52.040Z,47.86
2023-04-05T07:39:19.990Z,46.92
2023-04-05T07:41:46.461Z,46.51
2023-04-05T07:44:12.870Z,47.25
2023-04-05T07:49:11.687Z,44.85
2023-04-05T07:51:38.669Z,45.87
2023-04-05T07:54:05.878Z,47.31
2023-04-05T07:56:32.628Z,48.03
2023-04-05T07:58:59.343Z,48.13
2023-04-05T08:01:27.792Z,46.08
2023-04-05T08:03:57.378Z,45.39
2023-04-05T08:06:27.455Z,46.21
2023-04-05T08:08:53.912Z,44.74
2023-04-05T08:11:21.537Z,42.09
2023-04-05T08:13:48.148Z,42.47
2023-04-05T08:16:14.580Z,42.15
2023-04-05T08:18:41.031Z,41.96
2023-04-05T08:21:07.483Z,42.53
2023-04-05T08:23:33.986Z,41.46
2023-04-05T08:26:00.584Z,42.21
2023-04-05T08:28:27.369Z,40.85
2023-04-05T08:30:57.748Z,40.64
2023-04-05T08:33:26.292Z,40.58
2023-04-05T08:35:53.055Z,40.29
2023-04-05T08:38:19.749Z,37.80
2023-04-05T08:40:47.822Z,37.11
2023-04-05T08:44:07.987Z,36.53
2023-04-05T08:46:35.440Z,40.62
2023-04-05T08:49:09.072Z,38.58
2023-04-05T08:51:41.360Z,39.89
2023-04-05T08:54:08.084Z,38.64
2023-04-05T08:56:35.829Z,39.88
2023-04-05T08:59:09.840Z,40.44
2023-04-05T09:01:39.032Z,37.73
2023-04-05T09:04:07.604Z,38.18
2023-04-05T09:06:36.482Z,38.00
2023-04-05T09:09:06.738Z,41.06
2023-04-05T09:11:34.427Z,38.76
2023-04-05T09:14:04.381Z,37.88
2023-04-05T09:16:34.105Z,37.73
2023-04-05T09:19:00.816Z,37.45
2023-04-05T09:21:29.689Z,34.77
2023-04-05T09:23:56.694Z,35.86
2023-04-05T09:26:24.788Z,36.35
2023-04-05T09:28:51.727Z,36.68
2023-04-05T09:31:33.363Z,35.31
2023-04-05T09:34:02.633Z,32.86
2023-04-05T09:36:29.485Z,32.01
2023-04-05T09:39:07.027Z,32.13
2023-04-05T09:41:34.608Z,32.55
2023-04-05T09:44:01.374Z,32.52
2023-04-05T09:46:32.257Z,32.01
2023-04-05T09:48:58.822Z,32.11
2023-04-05T09:51:33.531Z,32.57
2023-04-05T09:54:08.361Z,34.78
2023-04-05T09:56:37.203Z,33.81
2023-04-05T09:59:09.561Z,33.45
2023-04-05T10:01:43.259Z,32.03
2023-04-05T10:04:10.108Z,30.54
2023-04-05T10:06:41.308Z,30.57
2023-04-05T10:09:09.715Z,31.88
2023-04-05T10:11:39.563Z,30.43
2023-04-05T10:14:08.712Z,30.73
2023-04-05T10:16:55.877Z,29.27
2023-04-05T10:19:29.413Z,29.81
2023-04-05T10:22:00.237Z,29.00
2023-04-05T10:24:51.973Z,31.29
2023-04-05T10:27:22.326Z,30.36
2023-04-05T10:30:08.519Z,32.40
2023-04-05T10:33:12.728Z,30.70
2023-04-05T10:36:04.246Z,30.25
2023-04-05T10:38:42.403Z,30.78
2023-04-05T10:41:17.006Z,33.34
2023-04-05T10:43:46.063Z,29.63
2023-04-05T10:46:19.495Z,30.21
2023-04-05T10:48:59.177Z,30.94
2023-04-05T10:51:29.684Z,30.42
2023-04-05T10:53:56.903Z,32.65
2023-04-05T10:56:25.005Z,32.33
2023-04-05T10:58:52.883Z,31.89
2023-04-05T11:01:21.524Z,31.42
2023-04-05T11:03:49.704Z,31.20
2023-04-05T11:06:20.668Z,31.91
2023-04-05T11:08:48.313Z,31.35
2023-04-05T11:11:17.717Z,32.72
2023-04-05T11:13:57.934Z,30.09
2023-04-05T11:16:39.476Z,30.13
2023-04-05T11:19:06.130Z,30.75
2023-04-05T11:21:32.628Z,30.80
2023-04-05T11:24:01.627Z,29.99
2023-04-05T11:26:40.704Z,30.31
2023-04-05T11:29:07.939Z,29.83
2023-04-05T11:31:34.468Z,30.87
2023-04-05T11:34:12.777Z,31.06
2023-04-05T11:36:45.794Z,31.58
2023-04-05T11:39:18.574Z,32.56
2023-04-05T11:42:02.323Z,32.11
2023-04-05T11:44:43.786Z,32.29
2023-04-05T11:47:11.471Z,31.70
2023-04-05T11:49:39.161Z,31.42
2023-04-05T11:52:14.568Z,32.20
2023-04-05T11:54:47.517Z,32.44
2023-04-05T11:57:18.605Z,33.11
2023-04-05T11:59:45.399Z,32.26
2023-04-05T12:02:12.589Z,32.28
2023-04-05T12:04:39.249Z,31.35
2023-04-05T12:07:19.398Z,32.10
2023-04-05T12:09:59.932Z,31.41
2023-04-05T12:12:26.474Z,32.46
2023-04-05T12:14:59.076Z,32.04
2023-04-05T12:17:42.720Z,33.60
2023-04-05T12:20:10.711Z,32.16
2023-04-05T12:22:38.592Z,31.29
2023-04-05T12:25:06.145Z,31.59
2023-04-05T12:27:32.808Z,31.26
2023-04-05T12:30:10.465Z,30.68
2023-04-05T12:32:41.433Z,32.13
2023-04-05T12:35:21.677Z,32.39
2023-04-05T12:37:50.816Z,34.33
2023-04-05T12:40:24.826Z,33.17
2023-04-05T12:42:51.741Z,33.33
2023-04-05T12:45:18.692Z,31.27
2023-04-05T12:47:59.715Z,30.71
2023-04-05T12:50:30.936Z,31.78
2023-04-05T12:53:04.828Z,33.20
2023-04-05T12:55:31.954Z,32.06
2023-04-05T12:58:02.271Z,30.34
2023-04-05T13:00:29.830Z,29.70
2023-04-05T13:02:58.159Z,30.15
2023-04-05T13:05:27.154Z,30.02
2023-04-05T13:07:54.033Z,30.61
2023-04-05T13:10:21.558Z,30.37
2023-04-05T13:12:48.500Z,30.32
2023-04-05T13:15:16.141Z,29.96
2023-04-05T13:17:45.176Z,30.00
2023-04-05T13:20:12.057Z,29.37
2023-04-05T13:22:39.477Z,29.12
2023-04-05T13:25:06.448Z,28.43
2023-04-05T13:27:32.887Z,29.16
2023-04-05T13:29:59.281Z,29.20
2023-04-05T13:32:26.062Z,28.65
2023-04-05T13:34:52.585Z,29.29
2023-04-05T13:37:19.081Z,29.65
2023-04-05T13:39:45.549Z,29.71
2023-04-05T13:42:11.978Z,30.64
2023-04-05T13:44:38.439Z,29.13
2023-04-05T13:47:05.012Z,31.48
2023-04-05T13:49:31.572Z,29.79
2023-04-05T13:51:58.046Z,29.33
2023-04-05T13:54:24.529Z,31.87
2023-04-05T13:56:51.162Z,30.30
2023-04-05T13:59:19.456Z,30.52
2023-04-05T14:01:46.790Z,29.99
2023-04-05T14:04:13.606Z,29.59
2023-04-05T14:06:40.106Z,29.58
2023-04-05T14:09:06.515Z,29.23
2023-04-05T14:11:33.113Z,30.01
2023-04-05T14:13:59.684Z,31.27
2023-04-05T14:16:26.281Z,31.27
2023-04-05T14:18:52.791Z,32.40
2023-04-05T14:21:19.541Z,30.28
2023-04-05T14:23:46.390Z,30.17
2023-04-05T14:26:13.187Z,29.00
2023-04-05T14:28:39.673Z,28.37
2023-04-05T14:31:06.256Z,28.48
2023-04-05T14:33:32.717Z,32.55
2023-04-05T14:35:59.232Z,31.33
2023-04-05T14:38:25.869Z,29.43
2023-04-05T14:40:52.421Z,28.91
2023-04-05T14:43:18.950Z,30.85
2023-04-05T14:45:45.441Z,28.40
2023-04-05T14:48:11.944Z,29.01
2023-04-05T14:50:38.606Z,27.68
2023-04-05T14:53:05.349Z,30.86
2023-04-05T14:55:31.811Z,28.57
2023-04-05T14:57:58.317Z,29.37
2023-04-05T15:00:24.914Z,27.65
2023-04-05T15:02:51.548Z,29.42
2023-04-05T15:05:18.579Z,29.05
2023-04-05T15:07:45.163Z,29.02
2023-04-05T15:10:11.710Z,29.49
2023-04-05T15:12:38.257Z,28.93
2023-04-05T15:15:05.193Z,30.74
2023-04-05T15:17:31.706Z,29.75
2023-04-05T15:19:58.170Z,30.54
2023-04-05T15:22:24.783Z,29.63
2023-04-05T15:24:51.317Z,30.15
2023-04-05T15:27:17.804Z,28.05
2023-04-05T15:29:44.374Z,27.91
2023-04-05T15:32:10.934Z,29.25
2023-04-05T15:34:38.223Z,28.79
2023-04-05T15:37:04.706Z,29.17
2023-04-05T15:39:31.460Z,28.51
2023-04-05T15:41:57.994Z,29.20
2023-04-05T15:44:24.484Z,30.47
2023-04-05T15:46:51.023Z,28.50
2023-04-05T15:49:17.744Z,29.27
2023-04-05T15:51:44.638Z,30.32
2023-04-05T15:54:14.096Z,30.01
2023-04-05T15:56:40.564Z,31.26
2023-04-05T15:59:07.210Z,29.88
2023-04-05T16:01:33.785Z,29.45
2023-04-05T16:04:00.615Z,29.78
2023-04-05T16:06:29.466Z,28.15
2023-04-05T16:08:56.193Z,27.90
2023-04-05T16:11:22.844Z,28.19
2023-04-05T16:13:49.621Z,28.65
2023-04-05T16:16:25.740Z,27.41
2023-04-05T16:19:01.794Z,29.07
2023-04-05T16:21:28.627Z,28.71
2023-04-05T16:23:56.752Z,30.16
2023-04-05T16:26:23.426Z,28.83
2023-04-05T16:28:49.916Z,28.35
2023-04-05T16:31:16.479Z,29.87
2023-04-05T16:33:43.002Z,29.88
2023-04-05T16:36:09.501Z,30.51
2023-04-05T16:38:36.201Z,29.36
2023-04-05T16:41:02.678Z,31.16
2023-04-05T16:43:29.155Z,31.23
2023-04-05T16:45:55.954Z,29.73
2023-04-05T16:48:22.734Z,29.85
2023-04-05T16:50:49.268Z,30.55
2023-04-05T16:53:16.015Z,29.68
2023-04-05T16:55:42.567Z,30.61
2023-04-05T16:58:09.078Z,29.48
2023-04-05T17:00:37.039Z,30.47
2023-04-05T17:03:03.848Z,29.36
2023-04-05T17:05:30.405Z,29.61
2023-04-05T17:07:56.840Z,30.72
2023-04-05T17:10:23.320Z,30.29
2023-04-05T17:12:49.880Z,30.18
2023-04-05T17:15:16.565Z,30.49
2023-04-05T17:17:43.079Z,30.55
2023-04-05T17:20:10.414Z,29.80
2023-04-05T17:22:37.282Z,31.00
2023-04-05T17:25:05.738Z,30.05
2023-04-05T17:27:32.211Z,29.34
2023-04-05T17:30:00.235Z,29.31
2023-04-05T17:32:29.751Z,29.38
2023-04-05T17:34:56.388Z,30.38
2023-04-05T17:37:22.911Z,30.32
2023-04-05T17:39:49.356Z,30.03
2023-04-05T17:42:17.037Z,28.93
2023-04-05T17:44:43.527Z,29.14
2023-04-05T17:47:10.263Z,29.80
2023-04-05T17:49:37.480Z,29.01
2023-04-05T17:52:05.436Z,29.44
2023-04-05T17:54:36.808Z,30.29
2023-04-05T17:57:14.907Z,29.76
2023-04-05T17:59:42.211Z,30.87
2023-04-05T18:02:10.894Z,31.10
2023-04-05T18:04:40.997Z,31.45
2023-04-05T18:07:08.130Z,31.96
2023-04-05T18:09:35.410Z,31.19
2023-04-05T18:12:02.468Z,30.57
2023-04-05T18:15:06.709Z,30.89
2023-04-05T18:17:33.291Z,31.48
2023-04-05T18:19:59.828Z,31.24
2023-04-05T18:22:26.369Z,32.06
2023-04-05T18:24:52.853Z,31.50
2023-04-05T18:27:19.288Z,32.17
2023-04-05T18:29:46.667Z,32.75
2023-04-05T18:32:13.190Z,32.95
2023-04-05T18:34:39.731Z,32.33
2023-04-05T18:37:06.442Z,33.78
2023-04-05T18:39:54.613Z,33.83
2023-04-05T18:42:21.186Z,33.67
2023-04-05T18:44:47.722Z,33.49
2023-04-05T18:47:14.245Z,34.35
2023-04-05T18:49:41.074Z,34.13
2023-04-05T18:52:07.506Z,33.99
2023-04-05T18:54:33.976Z,33.77
2023-04-05T18:57:00.611Z,34.70
2023-04-05T18:59:27.251Z,34.80
2023-04-05T19:01:54.247Z,34.42
2023-04-05T19:04:20.830Z,34.74
2023-04-05T19:06:47.298Z,34.49
2023-04-05T19:09:15.821Z,35.08
2023-04-05T19:11:42.275Z,36.05
2023-04-05T19:14:08.827Z,35.62
2023-04-05T19:16:35.409Z,35.72
2023-04-05T19:19:03.674Z,36.43
2023-04-05T19:21:30.981Z,36.31
2023-04-05T19:23:57.786Z,36.45
2023-04-05T19:26:24.239Z,36.27
2023-04-05T19:28:50.779Z,36.47
2023-04-05T19:31:17.321Z,36.86
2023-04-05T19:33:44.026Z,37.50
2023-04-05T19:36:10.928Z,37.08
2023-04-05T19:39:28.016Z,36.90
2023-04-05T19:41:54.522Z,38.29
2023-04-05T19:44:42.793Z,37.81
2023-04-05T19:47:10.980Z,37.44
2023-04-05T19:49:39.189Z,38.06
2023-04-05T19:52:11.355Z,38.29
2023-04-05T19:54:38.719Z,38.88
2023-04-05T19:57:06.651Z,37.99
2023-04-05T19:59:42.784Z,37.84
2023-04-05T20:02:24.826Z,38.13
2023-04-05T20:04:51.972Z,37.77
2023-04-05T20:07:18.519Z,38.23
2023-04-05T20:09:45.037Z,38.89
2023-04-05T20:12:13.284Z,39.01
2023-04-05T20:14:46.266Z,39.12
2023-04-05T20:17:13.491Z,39.67
2023-04-05T20:19:41.728Z,38.66
2023-04-05T20:22:09.225Z,38.67
2023-04-05T20:24:39.507Z,39.43
2023-04-05T20:27:06.089Z,39.08
2023-04-05T20:29:33.328Z,39.92
2023-04-05T20:32:01.069Z,39.44
2023-04-05T20:34:34.744Z,38.93
2023-04-05T20:37:03.028Z,38.58
2023-04-05T20:39:30.511Z,40.82
2023-04-05T20:41:57.149Z,39.89
2023-04-05T20:44:24.364Z,39.79
2023-04-05T20:46:53.213Z,41.25
2023-04-05T20:49:20.844Z,40.61
2023-04-05T20:51:47.290Z,41.16
2023-04-05T20:54:13.866Z,42.08
2023-04-05T20:56:40.965Z,41.68
2023-04-05T20:59:07.924Z,41.39
2023-04-05T21:01:36.790Z,41.66
2023-04-05T21:04:03.805Z,41.70
2023-04-05T21:06:30.474Z,42.10
2023-04-05T21:08:56.913Z,42.31
2023-04-05T21:11:23.362Z,41.97
2023-04-05T21:13:49.847Z,42.26
2023-04-05T21:16:16.564Z,41.85
2023-04-05T21:18:43.125Z,42.43
2023-04-05T21:21:09.657Z,42.24
2023-04-05T21:23:36.107Z,43.63
2023-04-05T21:26:04.389Z,43.83
2023-04-05T21:28:31.132Z,43.36
2023-04-05T21:30:58.812Z,42.68
2023-04-05T21:33:25.349Z,42.66
2023-04-05T21:35:51.910Z,43.47
2023-04-05T21:38:18.620Z,44.06
2023-04-05T21:40:45.119Z,43.59
2023-04-05T21:43:12.840Z,44.57
2023-04-05T21:45:39.396Z,43.90
2023-04-05T21:48:06.279Z,44.49
2023-04-05T21:50:32.878Z,43.71
2023-04-05T21:52:59.374Z,44.21
2023-04-05T21:55:25.864Z,44.30
2023-04-05T21:57:52.368Z,44.32
2023-04-05T22:00:19.137Z,44.89
2023-04-05T22:02:46.738Z,44.55
2023-04-05T22:05:17.589Z,44.41
2023-04-05T22:07:52.549Z,44.59
2023-04-05T22:10:19.277Z,44.91
2023-04-05T22:12:46.066Z,45.09
2023-04-05T22:15:12.600Z,44.61
2023-04-05T22:17:39.190Z,45.85
2023-04-05T22:20:06.528Z,45.67
2023-04-05T22:22:33.060Z,45.81
2023-04-05T22:24:59.528Z,45.49
2023-04-05T22:27:28.113Z,45.26
2023-04-05T22:29:54.746Z,46.13
2023-04-05T22:32:21.389Z,46.11
2023-04-05T22:34:47.891Z,45.36
2023-04-05T22:37:14.359Z,44.53
2023-04-05T22:39:40.831Z,44.96
2023-04-05T22:42:07.399Z,44.51
2023-04-05T22:44:33.897Z,44.99
2023-04-05T22:47:00.358Z,45.16
2023-04-05T22:49:26.812Z,45.49
2023-04-05T22:51:53.321Z,45.66
2023-04-05T22:54:19.772Z,46.69
2023-04-05T22:56:46.429Z,45.74
2023-04-05T22:59:12.958Z,45.10
2023-04-05T23:01:39.540Z,45.21
2023-04-05T23:04:06.781Z,45.82
2023-04-05T23:06:33.498Z,45.94
2023-04-05T23:09:01.668Z,46.40
2023-04-05T23:11:28.141Z,46.48
2023-04-05T23:13:54.810Z,46.36
2023-04-05T23:16:21.947Z,46.27
2023-04-05T23:18:49.169Z,45.88
2023-04-05T23:21:16.316Z,46.40
2023-04-05T23:23:42.761Z,45.99
2023-04-05T23:26:09.211Z,46.00
2023-04-05T23:28:35.782Z,45.21
2023-04-05T23:31:02.236Z,45.78
2023-04-05T23:33:28.766Z,45.44
2023-04-05T23:35:55.553Z,45.52
2023-04-05T23:38:22.024Z,46.09
2023-04-05T23:40:48.484Z,45.37
2023-04-05T23:43:14.955Z,45.66
2023-04-05T23:45:41.792Z,46.49
2023-04-05T23:48:08.333Z,47.23
2023-04-05T23:50:34.837Z,45.61
2023-04-05T23:53:02.821Z,46.30
2023-04-05T23:55:31.802Z,46.45
2023-04-05T23:58:00.056Z,46.33
